.
WxDataArchive / Data Records for 2015-10-23
2015-10-22 October 2015 2015-10-24

Data Records for Friday, 23 October 2015

Time	Temp	Chill	HIndex	Humid	Dewpt	 Wind 	HiWind	WindDir	Rain 	Barom
-----	----	-----	------	-----	-----	------	------	-------	-----	-----
00:00	51.1	51.1	51.1	70	41.7	0	0	---	0.00	30.254 
00:05	51.1	51.1	51.1	70	41.7	0	0	---	0.00	30.254 
00:10	51.0	51.0	51.0	70	41.6	0	0	---	0.00	30.254 
00:15	51.0	51.0	51.0	69	41.2	0	0	---	0.00	30.253 
00:20	50.8	50.8	50.8	69	41.0	0	0	---	0.00	30.253 
00:25	50.7	50.7	50.7	69	40.9	0	0	---	0.00	30.253 
00:30	50.5	50.5	50.5	70	41.1	0	0	---	0.00	30.251 
00:35	50.2	50.2	50.2	70	40.8	0	0	---	0.00	30.251 
00:40	50.1	50.1	50.1	70	40.7	0	0	---	0.00	30.251 
00:45	49.8	49.8	49.8	71	40.8	0	0	---	0.00	30.254 
00:50	49.6	49.6	49.6	71	40.6	0	0	---	0.00	30.254 
00:55	49.5	49.5	49.5	71	40.5	0	0	---	0.00	30.254 
01:00	49.4	49.4	49.4	71	40.4	0	0	---	0.00	30.251 
01:05	49.1	49.1	49.1	71	40.1	0	0	---	0.00	30.251 
01:10	48.9	48.9	48.9	71	39.9	0	0	---	0.00	30.251 
01:15	48.9	48.9	48.9	71	39.9	0	0	---	0.00	30.250 
01:20	48.8	48.8	48.8	71	39.8	0	0	---	0.00	30.250 
01:25	48.6	48.6	48.6	72	40.0	0	0	---	0.00	30.250 
01:30	48.5	48.5	48.5	72	39.9	0	0	---	0.00	30.248 
01:35	48.5	48.5	48.5	72	39.9	0	0	---	0.00	30.248 
01:40	48.3	48.3	48.3	72	39.7	0	0	---	0.00	30.248 
01:45	48.2	48.2	48.2	73	40.0	0	0	---	0.00	30.246 
01:50	48.0	48.0	48.0	73	39.8	0	0	---	0.00	30.246 
01:55	47.7	47.7	47.7	73	39.5	0	0	---	0.00	30.246 
02:00	47.6	47.6	47.6	74	39.7	0	0	---	0.00	30.249 
02:05	47.4	47.4	47.4	74	39.5	0	0	---	0.00	30.249 
02:10	47.3	47.3	47.3	74	39.4	0	0	---	0.00	30.249 
02:15	47.1	47.1	47.1	75	39.6	0	0	---	0.00	30.249 
02:20	46.8	46.8	46.8	75	39.3	0	0	---	0.00	30.249 
02:25	46.7	46.7	46.7	76	39.5	0	0	---	0.00	30.249 
02:30	46.5	46.5	46.5	76	39.3	0	0	---	0.00	30.251 
02:35	46.5	46.5	46.5	76	39.3	0	0	---	0.00	30.251 
02:40	46.4	46.4	46.4	77	39.6	0	0	---	0.00	30.251 
02:45	46.2	46.2	46.2	77	39.4	0	0	---	0.00	30.252 
02:50	46.1	46.1	46.1	77	39.3	0	0	---	0.00	30.252 
02:55	46.0	46.0	46.0	78	39.5	0	0	---	0.00	30.252 
03:00	46.0	46.0	46.0	78	39.5	0	0	---	0.00	30.252 
03:05	45.8	45.8	45.8	78	39.3	0	0	---	0.00	30.252 
03:10	45.7	45.7	45.7	78	39.2	0	0	---	0.00	30.252 
03:15	45.5	45.5	45.5	79	39.4	0	0	---	0.00	30.252 
03:20	45.5	45.5	45.5	79	39.4	0	0	---	0.00	30.252 
03:25	45.4	45.4	45.4	79	39.3	0	0	---	0.00	30.252 
03:30	45.2	45.2	45.2	79	39.1	0	0	---	0.00	30.251 
03:35	45.2	45.2	45.2	79	39.1	0	0	---	0.00	30.251 
03:40	45.1	45.1	45.1	80	39.3	0	0	---	0.00	30.251 
03:45	44.9	44.9	44.9	80	39.1	0	0	---	0.00	30.240 
03:50	45.1	45.1	45.1	80	39.3	0	1	315	0.00	30.240 
03:55	45.4	45.4	45.4	79	39.3	0	1	315	0.00	30.240 
04:00	45.7	45.7	45.7	78	39.2	0	2	315	0.00	30.238 
04:05	46.1	46.1	46.1	77	39.3	0	2	315	0.00	30.238 
04:10	46.4	46.4	46.4	76	39.3	0	2	315	0.00	30.238 
04:15	46.5	46.5	46.5	75	39.0	0	2	315	0.00	30.241 
04:20	46.5	46.5	46.5	74	38.7	1	3	315	0.00	30.241 
04:25	46.7	46.7	46.7	74	38.9	0	3	90	0.00	30.241 
04:30	46.5	46.5	46.5	74	38.7	0	3	90	0.00	30.244 
04:35	46.5	46.5	46.5	74	38.7	0	2	90	0.00	30.244 
04:40	46.5	46.5	46.5	73	38.3	0	3	90	0.00	30.244 
04:45	46.4	46.4	46.4	74	38.6	0	3	90	0.00	30.237 
04:50	46.4	46.4	46.4	74	38.6	1	6	90	0.00	30.237 
04:55	46.2	46.2	46.2	74	38.4	1	6	90	0.00	30.237 
05:00	46.1	46.1	46.1	74	38.3	1	3	90	0.00	30.236 
05:05	46.1	46.1	46.1	74	38.3	0	2	90	0.00	30.236 
05:10	46.0	46.0	46.0	75	38.5	0	1	90	0.00	30.236 
05:15	45.8	45.8	45.8	75	38.3	0	4	90	0.00	30.240 
05:20	45.8	45.8	45.8	75	38.3	1	3	90	0.00	30.240 
05:25	45.7	45.7	45.7	75	38.2	0	2	90	0.00	30.240 
05:30	45.7	45.7	45.7	76	38.6	0	3	90	0.00	30.240 
05:35	45.5	45.5	45.5	76	38.4	1	4	90	0.00	30.240 
05:40	45.5	45.5	45.5	77	38.7	1	4	112	0.00	30.240 
05:45	45.5	45.5	45.5	77	38.7	1	4	112	0.00	30.249 
05:50	45.4	45.4	45.4	78	38.9	1	5	90	0.00	30.249 
05:55	45.4	45.4	45.4	79	39.3	0	2	112	0.00	30.249 
06:00	45.2	45.2	45.2	80	39.4	1	6	112	0.00	30.252 
06:05	45.2	45.2	45.2	80	39.4	0	2	112	0.00	30.252 
06:10	45.2	45.2	45.2	81	39.7	0	3	112	0.00	30.252 
06:15	45.1	45.1	45.1	81	39.6	0	3	112	0.00	30.254 
06:20	45.1	45.1	45.1	81	39.6	1	6	112	0.00	30.254 
06:25	44.9	44.9	44.9	82	39.7	0	3	90	0.00	30.254 
06:30	44.9	44.9	44.9	82	39.7	0	4	90	0.00	30.258 
06:35	44.9	44.9	44.9	83	40.1	0	3	90	0.00	30.258 
06:40	44.9	44.9	44.9	83	40.1	0	3	90	0.00	30.258 
06:45	44.9	44.9	44.9	83	40.1	0	3	68	0.00	30.257 
06:50	44.9	44.9	44.9	83	40.1	0	1	68	0.00	30.257 
06:55	44.8	44.8	44.8	84	40.3	1	4	90	0.00	30.257 
07:00	44.8	44.8	44.8	84	40.3	0	4	90	0.00	30.258 
07:05	44.8	44.8	44.8	84	40.3	1	5	112	0.00	30.258 
07:10	44.6	44.6	44.6	85	40.4	0	3	112	0.00	30.258 
07:15	44.6	44.6	44.6	85	40.4	0	3	90	0.00	30.267 
07:20	44.6	44.6	44.6	85	40.4	0	3	90	0.00	30.267 
07:25	44.6	44.6	44.6	85	40.4	0	5	90	0.00	30.267 
07:30	44.6	44.6	44.6	86	40.7	0	4	112	0.00	30.271 
07:35	44.5	44.5	44.5	86	40.6	0	1	112	0.00	30.271 
07:40	44.5	44.5	44.5	86	40.6	0	1	112	0.00	30.271 
07:45	44.3	44.3	44.3	86	40.4	0	1	112	0.00	30.274 
07:50	44.3	44.3	44.3	87	40.7	0	2	112	0.00	30.274 
07:55	44.3	44.3	44.3	87	40.7	0	1	112	0.00	30.274 
08:00	44.2	44.2	44.2	87	40.6	0	1	112	0.00	30.274 
08:05	44.2	44.2	44.2	87	40.6	0	1	112	0.00	30.274 
08:10	44.2	44.2	44.2	88	40.9	0	1	112	0.00	30.274 
08:15	44.1	44.1	44.1	88	40.8	0	3	112	0.00	30.273 
08:20	44.2	44.2	44.2	88	40.9	0	2	112	0.00	30.273 
08:25	44.2	44.2	44.2	88	40.9	0	2	112	0.00	30.273 
08:30	44.2	44.2	44.2	88	40.9	1	3	112	0.00	30.273 
08:35	44.3	44.3	44.3	88	41.0	0	1	90	0.00	30.273 
08:40	44.3	44.3	44.3	89	41.3	0	3	90	0.00	30.273 
08:45	44.5	44.5	44.5	89	41.5	0	3	90	0.00	30.266 
08:50	44.6	44.6	44.6	89	41.6	1	5	90	0.00	30.266 
08:55	44.9	44.9	44.9	89	41.9	1	4	90	0.00	30.266 
09:00	45.1	45.1	45.1	89	42.1	1	4	90	0.00	30.265 
09:05	45.4	45.4	45.4	89	42.3	1	6	90	0.00	30.265 
09:10	45.5	45.5	45.5	89	42.4	1	3	90	0.00	30.265 
09:15	45.8	45.8	45.8	89	42.7	0	3	90	0.00	30.270 
09:20	46.2	46.2	46.2	89	43.1	1	3	90	0.00	30.270 
09:25	46.5	46.5	46.5	88	43.1	1	5	90	0.00	30.270 
09:30	46.8	46.8	46.8	88	43.4	1	4	90	0.00	30.270 
09:35	47.3	47.3	47.3	88	43.9	0	3	90	0.00	30.270 
09:40	47.7	47.7	47.7	88	44.3	1	4	90	0.00	30.270 
09:45	48.2	48.2	48.2	87	44.5	1	4	68	0.00	30.274 
09:50	48.8	48.8	48.8	86	44.8	1	5	90	0.00	30.274 
09:55	49.2	49.2	49.2	85	44.9	2	5	90	0.00	30.274 
10:00	49.5	49.5	49.5	84	44.9	2	5	90	0.00	30.279 
10:05	49.8	49.8	49.8	83	44.8	1	5	90	0.00	30.279 
10:10	49.9	49.9	49.9	82	44.6	2	5	90	0.00	30.279 
10:15	50.2	50.2	50.2	81	44.6	3	5	90	0.00	30.286 
10:20	50.5	50.5	50.5	81	44.9	2	6	68	0.00	30.286 
10:25	50.8	50.8	50.8	80	44.9	1	4	112	0.00	30.286 
10:30	51.0	51.0	51.0	79	44.7	2	7	90	0.00	30.276 
10:35	51.3	51.3	51.3	79	45.0	1	5	90	0.00	30.276 
10:40	51.4	51.4	51.4	78	44.8	3	9	90	0.00	30.276 
10:45	51.7	51.7	51.7	77	44.7	3	7	90	0.00	30.263 
10:50	52.0	52.0	52.0	76	44.7	2	9	112	0.00	30.263 
10:55	52.3	52.3	52.3	75	44.6	2	7	90	0.00	30.263 
11:00	52.5	52.5	52.5	74	44.5	2	5	112	0.00	30.254 
11:05	52.6	52.6	52.6	73	44.2	4	9	112	0.00	30.254 
11:10	52.8	52.8	52.8	73	44.4	3	8	90	0.00	30.254 
11:15	53.1	53.1	53.1	72	44.3	3	8	90	0.00	30.246 
11:20	53.2	53.2	53.2	72	44.4	2	5	90	0.00	30.246 
11:25	53.2	53.2	53.2	71	44.0	3	6	90	0.00	30.246 
11:30	53.2	53.2	53.2	72	44.4	3	5	90	0.00	30.250 
11:35	53.3	53.3	53.3	71	44.1	2	6	90	0.00	30.250 
11:40	53.3	53.3	53.3	71	44.1	3	6	90	0.00	30.250 
11:45	53.5	53.5	53.5	71	44.3	2	7	90	0.00	30.247 
11:50	53.6	53.6	53.6	71	44.4	3	7	90	0.00	30.247 
11:55	53.8	53.8	53.8	70	44.2	3	8	90	0.00	30.247 
12:00	54.1	54.1	54.1	70	44.5	2	5	90	0.00	30.238 
12:05	54.4	54.4	54.4	69	44.4	2	7	90	0.00	30.238 
12:10	54.5	54.5	54.5	69	44.5	3	7	90	0.00	30.238 
12:15	55.1	55.1	55.1	69	45.1	2	5	68	0.00	30.233 
12:20	56.2	56.2	56.2	67	45.4	2	10	90	0.00	30.233 
12:25	56.7	56.7	56.7	65	45.1	2	7	90	0.00	30.233 
12:30	56.7	56.7	56.7	63	44.2	3	6	90	0.00	30.235 
12:35	56.7	56.7	56.7	62	43.8	2	6	68	0.00	30.235 
12:40	56.7	56.7	56.7	62	43.8	2	5	90	0.00	30.235 
12:45	56.7	56.7	56.7	62	43.8	3	7	68	0.00	30.230 
12:50	56.7	56.7	56.7	62	43.8	3	6	90	0.00	30.230 
12:55	56.7	56.7	56.7	61	43.4	3	6	90	0.00	30.230 
13:00	56.9	56.9	56.9	61	43.6	2	6	90	0.00	30.226 
13:05	57.2	57.2	57.2	61	43.9	1	6	68	0.00	30.226 
13:10	57.5	57.5	57.5	60	43.7	3	7	90	0.00	30.226 
13:15	57.6	57.6	57.6	60	43.8	3	8	90	0.00	30.206 
13:20	58.0	58.0	58.0	60	44.2	3	7	90	0.00	30.206 
13:25	58.3	58.3	58.3	58	43.6	3	9	90	0.00	30.206 
13:30	58.4	58.4	58.4	58	43.7	3	8	90	0.00	30.206 
13:35	58.6	58.6	58.6	58	43.9	2	10	90	0.00	30.206 
13:40	58.9	58.9	58.9	57	43.7	2	6	90	0.00	30.206 
13:45	58.9	58.9	58.9	57	43.7	3	7	90	0.00	30.203 
13:50	59.0	59.0	59.0	57	43.8	3	6	90	0.00	30.203 
13:55	59.0	59.0	59.0	56	43.3	3	6	90	0.00	30.203 
14:00	59.2	59.2	59.2	57	44.0	2	6	90	0.00	30.193 
14:05	59.3	59.3	59.3	55	43.1	2	6	90	0.00	30.193 
14:10	59.5	59.5	59.5	55	43.3	3	7	112	0.00	30.193 
14:15	59.6	59.6	59.6	54	42.9	2	6	90	0.00	30.187 
14:20	59.6	59.6	59.6	54	42.9	3	6	90	0.00	30.187 
14:25	59.8	59.8	59.8	54	43.1	2	6	90	0.00	30.187 
14:30	59.9	59.9	59.9	53	42.7	3	11	90	0.00	30.173 
14:35	60.1	60.1	60.1	54	43.4	3	6	90	0.00	30.173 
14:40	60.2	60.2	60.2	54	43.5	1	4	90	0.00	30.173 
14:45	60.4	60.4	60.4	53	43.2	2	6	90	0.00	30.158 
14:50	60.5	60.5	60.5	53	43.3	3	6	90	0.00	30.158 
14:55	60.7	60.7	60.7	52	43.0	3	6	90	0.00	30.158 
15:00	60.9	60.9	60.9	53	43.7	2	7	90	0.00	30.158 
15:05	61.0	61.0	61.0	52	43.2	2	9	90	0.00	30.158 
15:10	60.9	60.9	60.9	51	42.6	3	9	90	0.00	30.158 
15:15	60.9	60.9	60.9	51	42.6	2	7	112	0.00	30.152 
15:20	60.9	60.9	60.9	51	42.6	2	5	90	0.00	30.152 
15:25	60.9	60.9	60.9	51	42.6	2	6	112	0.00	30.152 
15:30	61.0	61.0	61.0	52	43.2	2	4	68	0.00	30.141 
15:35	61.2	61.2	61.2	51	42.9	2	5	90	0.00	30.141 
15:40	61.2	61.2	61.2	52	43.4	2	6	90	0.00	30.141 
15:45	61.2	61.2	61.2	51	42.9	2	6	90	0.00	30.130 
15:50	61.2	61.2	61.2	51	42.9	3	12	90	0.00	30.130 
15:55	61.0	61.0	61.0	52	43.2	3	6	112	0.00	30.130 
16:00	61.0	61.0	61.0	52	43.2	1	3	68	0.00	30.126 
16:05	61.2	61.2	61.2	52	43.4	2	6	90	0.00	30.126 
16:10	61.0	61.0	61.0	51	42.7	4	7	90	0.00	30.126 
16:15	61.0	61.0	61.0	52	43.2	3	6	90	0.00	30.116 
16:20	61.0	61.0	61.0	52	43.2	1	4	68	0.00	30.116 
16:25	61.2	61.2	61.2	52	43.4	1	5	68	0.00	30.116 
16:30	61.2	61.2	61.2	52	43.4	2	5	68	0.00	30.113 
16:35	61.2	61.2	61.2	51	42.9	3	9	90	0.00	30.113 
16:40	61.2	61.2	61.2	51	42.9	2	5	90	0.00	30.113 
16:45	61.2	61.2	61.2	51	42.9	2	11	68	0.00	30.105 
16:50	61.2	61.2	61.2	51	42.9	2	7	68	0.00	30.105 
16:55	61.2	61.2	61.2	51	42.9	2	7	90	0.00	30.105 
17:00	61.3	61.3	61.3	50	42.5	3	7	90	0.00	30.096 
17:05	61.5	61.5	61.5	50	42.7	3	7	90	0.00	30.096 
17:10	61.5	61.5	61.5	50	42.7	3	10	90	0.00	30.096 
17:15	61.6	61.6	61.6	50	42.8	2	4	90	0.00	30.088 
17:20	61.6	61.6	61.6	50	42.8	2	6	90	0.00	30.088 
17:25	61.6	61.6	61.6	50	42.8	3	7	90	0.00	30.088 
17:30	61.6	61.6	61.6	50	42.8	2	6	90	0.00	30.081 
17:35	61.5	61.5	61.5	50	42.7	2	4	90	0.00	30.081 
17:40	61.3	61.3	61.3	50	42.5	2	5	90	0.00	30.081 
17:45	61.3	61.3	61.3	50	42.5	1	3	112	0.00	30.082 
17:50	61.3	61.3	61.3	50	42.5	3	5	68	0.00	30.082 
17:55	61.2	61.2	61.2	50	42.4	2	5	90	0.00	30.082 
18:00	61.2	61.2	61.2	50	42.4	2	6	90	0.00	30.083 
18:05	61.0	61.0	61.0	50	42.2	1	5	90	0.00	30.083 
18:10	61.0	61.0	61.0	51	42.7	1	3	90	0.00	30.083 
18:15	60.9	60.9	60.9	50	42.1	2	4	90	0.00	30.094 
18:20	60.9	60.9	60.9	51	42.6	1	4	90	0.00	30.094 
18:25	60.7	60.7	60.7	51	42.5	2	3	90	0.00	30.094 
18:30	60.7	60.7	60.7	51	42.5	2	4	90	0.00	30.092 
18:35	60.5	60.5	60.5	51	42.3	2	5	90	0.00	30.092 
18:40	60.5	60.5	60.5	51	42.3	2	6	90	0.00	30.092 
18:45	60.5	60.5	60.5	51	42.3	2	6	112	0.00	30.088 
18:50	60.4	60.4	60.4	51	42.2	2	6	68	0.00	30.088 
18:55	60.4	60.4	60.4	50	41.7	2	4	90	0.00	30.088 
19:00	60.4	60.4	60.4	50	41.7	2	5	90	0.00	30.092 
19:05	60.2	60.2	60.2	51	42.0	1	3	90	0.00	30.092 
19:10	60.1	60.1	60.1	51	41.9	1	3	90	0.00	30.092 
19:15	60.1	60.1	60.1	50	41.4	1	5	90	0.00	30.094 
19:20	60.1	60.1	60.1	51	41.9	1	3	68	0.00	30.094 
19:25	59.9	59.9	59.9	51	41.7	1	4	68	0.00	30.094 
19:30	59.9	59.9	59.9	52	42.2	1	5	68	0.00	30.090 
19:35	59.8	59.8	59.8	52	42.1	1	3	68	0.00	30.090 
19:40	59.6	59.6	59.6	51	41.4	2	5	68	0.00	30.090 
19:45	59.6	59.6	59.6	51	41.4	1	4	68	0.00	30.096 
19:50	59.6	59.6	59.6	51	41.4	1	3	68	0.00	30.096 
19:55	59.5	59.5	59.5	51	41.4	2	4	68	0.00	30.096 
20:00	59.5	59.5	59.5	51	41.4	2	5	90	0.00	30.087 
20:05	59.5	59.5	59.5	51	41.4	2	5	68	0.00	30.087 
20:10	59.5	59.5	59.5	50	40.8	2	5	90	0.00	30.087 
20:15	59.5	59.5	59.5	50	40.8	2	4	90	0.00	30.082 
20:20	59.5	59.5	59.5	50	40.8	2	6	68	0.00	30.082 
20:25	59.5	59.5	59.5	50	40.8	2	4	90	0.00	30.082 
20:30	59.5	59.5	59.5	50	40.8	2	4	90	0.00	30.087 
20:35	59.5	59.5	59.5	50	40.8	2	6	90	0.00	30.087 
20:40	59.5	59.5	59.5	50	40.8	2	4	90	0.00	30.087 
20:45	59.3	59.3	59.3	50	40.7	3	6	90	0.00	30.082 
20:50	59.3	59.3	59.3	50	40.7	2	4	90	0.00	30.082 
20:55	59.2	59.2	59.2	50	40.6	1	3	90	0.00	30.082 
21:00	58.9	58.9	58.9	52	41.3	2	7	90	0.00	30.082 
21:05	58.6	58.6	58.6	53	41.5	2	6	90	0.00	30.082 
21:10	58.3	58.3	58.3	54	41.7	1	4	68	0.00	30.082 
21:15	58.0	58.0	58.0	55	41.9	2	4	90	0.00	30.079 
21:20	57.6	57.6	57.6	56	42.0	1	5	90	0.00	30.079 
21:25	57.5	57.5	57.5	57	42.4	1	4	90	0.00	30.079 
21:30	57.3	57.3	57.3	58	42.6	1	5	112	0.00	30.078 
21:35	57.0	57.0	57.0	59	42.8	1	5	68	0.00	30.078 
21:40	56.9	56.9	56.9	59	42.7	2	6	68	0.00	30.078 
21:45	56.6	56.6	56.6	60	42.9	2	5	90	0.00	30.064 
21:50	56.5	56.5	56.5	60	42.8	2	5	90	0.00	30.064 
21:55	56.3	56.3	56.3	60	42.6	2	5	68	0.00	30.064 
22:00	56.3	56.3	56.3	61	43.0	2	6	68	0.00	30.064 
22:05	56.2	56.2	56.2	61	42.9	1	5	90	0.00	30.064 
22:10	56.0	56.0	56.0	62	43.2	1	10	68	0.00	30.064 
22:15	55.9	55.9	55.9	62	43.1	2	3	68	0.00	30.056 
22:20	55.9	55.9	55.9	62	43.1	2	5	68	0.00	30.056 
22:25	55.9	55.9	55.9	62	43.1	2	5	68	0.00	30.056 
22:30	55.7	55.7	55.7	62	42.9	1	4	45	0.00	30.051 
22:35	55.7	55.7	55.7	63	43.3	1	5	90	0.00	30.051 
22:40	55.6	55.6	55.6	63	43.2	2	6	90	0.00	30.051 
22:45	55.6	55.6	55.6	63	43.2	2	5	90	0.00	30.046 
22:50	55.4	55.4	55.4	64	43.4	1	4	90	0.00	30.046 
22:55	55.4	55.4	55.4	64	43.4	1	4	90	0.00	30.046 
23:00	55.3	55.3	55.3	64	43.3	1	3	45	0.00	30.045 
23:05	55.1	55.1	55.1	65	43.5	1	3	45	0.00	30.045 
23:10	55.1	55.1	55.1	65	43.5	1	5	68	0.00	30.045 
23:15	55.0	55.0	55.0	65	43.5	1	4	68	0.00	30.042 
23:20	55.0	55.0	55.0	65	43.5	1	4	68	0.00	30.042 
23:25	55.0	55.0	55.0	66	43.9	1	3	68	0.00	30.042 
23:30	54.8	54.8	54.8	66	43.7	0	2	68	0.00	30.033 
23:35	54.8	54.8	54.8	66	43.7	1	4	68	0.00	30.033 
23:40	54.8	54.8	54.8	66	43.7	1	3	68	0.00	30.033 
23:45	54.8	54.8	54.8	66	43.7	1	4	68	0.00	30.030 
23:50	54.8	54.8	54.8	66	43.7	2	5	90	0.00	30.030 
23:55	54.8	54.8	54.8	67	44.1	0	1	90	0.00	30.030 

CoCoRaHS
IN-AL-39
A2 Web Hosting
Creative Commons License
GoDaddy
search engine by freefind advanced

loaded 2018-11-17 12:07:08 • last modified 2010-11-18 10:43:29
Privacy PolicyDisclaimer
• wx.awcolley.com is powered by PmWiki v.2002016 •
• all content (unless otherwise noted) © 2018 A W Colley